createdAt,value
2019-01-29T00:01:47.540Z,93.40
2019-01-29T00:04:18.285Z,94.70
2019-01-29T00:06:50.679Z,93.40
2019-01-29T00:09:28.139Z,94.00
2019-01-29T00:12:00.117Z,92.10
2019-01-29T00:14:33.578Z,92.70
2019-01-29T00:17:07.694Z,92.20
2019-01-29T00:19:41.092Z,92.80
2019-01-29T00:22:39.700Z,91.60
2019-01-29T00:25:15.495Z,91.40
2019-01-29T00:27:50.843Z,92.30
2019-01-29T00:30:24.980Z,91.30
2019-01-29T00:32:58.492Z,91.50
2019-01-29T00:35:32.341Z,92.00
2019-01-29T00:38:04.742Z,91.50
2019-01-29T00:40:40.535Z,90.70
2019-01-29T00:43:24.751Z,90.50
2019-01-29T00:45:56.742Z,91.60
2019-01-29T00:48:39.563Z,91.50
2019-01-29T00:51:39.545Z,92.50
2019-01-29T00:54:17.693Z,91.90
2019-01-29T01:00:00.898Z,92.40
2019-01-29T01:02:41.105Z,92.90
2019-01-29T01:05:27.892Z,92.80
2019-01-29T01:08:08.233Z,93.70
2019-01-29T01:10:49.830Z,93.70
2019-01-29T01:13:27.678Z,94.20
2019-01-29T01:16:23.001Z,93.80
2019-01-29T01:18:57.411Z,93.80
2019-01-29T01:21:31.190Z,94.40
2019-01-29T01:24:08.363Z,94.60
2019-01-29T01:26:41.454Z,95.60
2019-01-29T01:29:24.629Z,95.30
2019-01-29T01:32:04.870Z,95.50
2019-01-29T01:34:59.820Z,95.40
2019-01-29T01:37:38.926Z,95.70
2019-01-29T01:40:32.725Z,95.70
2019-01-29T01:43:25.575Z,95.00
2019-01-29T01:46:26.634Z,95.50
2019-01-29T01:49:15.817Z,95.10
2019-01-29T01:52:12.914Z,94.10
2019-01-29T01:55:30.813Z,92.70
2019-01-29T01:58:11.245Z,93.20
2019-01-29T02:01:27.336Z,94.00
2019-01-29T02:08:36.754Z,90.70
2019-01-29T02:11:58.718Z,90.20
2019-01-29T02:15:05.696Z,88.80
2019-01-29T02:17:47.078Z,87.70
2019-01-29T02:20:35.446Z,87.80
2019-01-29T02:23:36.357Z,87.10
2019-01-29T02:26:34.145Z,89.10
2019-01-29T02:29:49.617Z,89.00
2019-01-29T02:32:38.711Z,89.30
2019-01-29T02:38:47.955Z,85.40
2019-01-29T02:42:07.611Z,85.50
2019-01-29T02:45:06.326Z,87.60
2019-01-29T02:47:49.363Z,85.30
2019-01-29T02:50:47.450Z,87.80
2019-01-29T02:53:54.727Z,85.60
2019-01-29T02:56:35.414Z,87.60
2019-01-29T02:59:40.432Z,86.60
2019-01-29T03:02:53.680Z,85.40
2019-01-29T03:06:10.454Z,82.40
2019-01-29T03:09:36.810Z,83.40
2019-01-29T03:12:31.845Z,84.00
2019-01-29T03:16:04.169Z,84.00
2019-01-29T03:22:42.969Z,86.10
2019-01-29T03:36:22.494Z,87.70
2019-01-29T03:39:54.714Z,86.90
2019-01-29T03:43:07.819Z,89.60
2019-01-29T03:50:04.716Z,90.40
2019-01-29T03:53:38.188Z,91.80
2019-01-29T04:01:07.164Z,90.80
2019-01-29T04:04:45.780Z,90.20
2019-01-29T04:12:04.499Z,90.50
2019-01-29T04:30:33.361Z,92.50
2019-01-29T04:33:10.241Z,93.10
2019-01-29T04:36:11.236Z,93.30
2019-01-29T04:39:36.865Z,93.60
2019-01-29T04:42:19.948Z,94.30
2019-01-29T04:45:05.949Z,94.70
2019-01-29T04:47:39.828Z,94.80
2019-01-29T04:50:59.052Z,94.20
2019-01-29T04:54:12.943Z,94.20
2019-01-29T04:56:43.392Z,94.10
2019-01-29T04:59:18.988Z,94.40
2019-01-29T05:01:51.026Z,94.50
2019-01-29T05:04:21.296Z,94.50
2019-01-29T05:06:51.480Z,93.80
2019-01-29T05:09:25.535Z,93.10
2019-01-29T05:11:56.267Z,92.70
2019-01-29T05:14:32.487Z,92.10
2019-01-29T05:17:09.696Z,92.60
2019-01-29T05:19:41.888Z,93.00
2019-01-29T05:22:13.545Z,94.10
2019-01-29T05:24:45.388Z,94.60
2019-01-29T05:27:56.186Z,94.10
2019-01-29T05:30:28.576Z,94.10
2019-01-29T05:33:09.616Z,92.30
2019-01-29T05:35:40.136Z,90.90
2019-01-29T05:38:10.646Z,90.60
2019-01-29T05:40:41.151Z,90.00
2019-01-29T05:43:11.475Z,90.90
2019-01-29T05:45:42.691Z,90.90
2019-01-29T05:48:15.898Z,90.70
2019-01-29T05:50:46.513Z,89.40
2019-01-29T05:53:17.234Z,89.30
2019-01-29T05:55:49.159Z,89.70
2019-01-29T05:58:19.931Z,89.90
2019-01-29T06:00:50.052Z,88.50
2019-01-29T06:03:22.485Z,85.20
2019-01-29T06:05:53.140Z,85.20
2019-01-29T06:08:27.972Z,87.00
2019-01-29T06:11:00.526Z,86.70
2019-01-29T06:13:31.483Z,87.60
2019-01-29T06:18:40.872Z,87.20
2019-01-29T06:21:13.998Z,87.40
2019-01-29T06:23:44.251Z,86.30
2019-01-29T06:26:15.595Z,86.90
2019-01-29T06:28:47.046Z,86.50
2019-01-29T06:31:23.329Z,88.20
2019-01-29T06:33:58.475Z,89.80
2019-01-29T06:36:33.108Z,89.40
2019-01-29T06:39:12.427Z,90.60
2019-01-29T06:41:47.591Z,90.70
2019-01-29T06:44:23.198Z,90.50
2019-01-29T06:46:55.491Z,89.80
2019-01-29T06:49:35.667Z,86.60
2019-01-29T06:52:09.312Z,89.30
2019-01-29T06:54:45.050Z,89.20
2019-01-29T06:57:17.818Z,91.40
2019-01-29T06:59:50.092Z,91.70
2019-01-29T07:02:22.618Z,91.50
2019-01-29T07:04:56.324Z,91.70
2019-01-29T07:07:27.121Z,91.50
2019-01-29T07:10:01.367Z,92.00
2019-01-29T07:12:33.786Z,91.30
2019-01-29T07:15:05.847Z,91.10
2019-01-29T07:17:41.802Z,90.20
2019-01-29T07:20:15.566Z,88.50
2019-01-29T07:22:48.465Z,89.50
2019-01-29T07:25:19.745Z,89.70
2019-01-29T07:27:53.531Z,87.90
2019-01-29T07:33:01.994Z,90.50
2019-01-29T07:35:32.269Z,90.40
2019-01-29T07:38:11.993Z,90.10
2019-01-29T07:40:44.582Z,85.40
2019-01-29T07:43:15.118Z,86.30
2019-01-29T07:45:47.716Z,86.00
2019-01-29T07:51:09.044Z,82.00
2019-01-29T07:53:43.686Z,78.70
2019-01-29T07:56:15.475Z,76.40
2019-01-29T07:58:45.673Z,78.50
2019-01-29T08:01:18.320Z,76.40
2019-01-29T08:03:53.929Z,77.30
2019-01-29T08:06:28.463Z,77.00
2019-01-29T08:09:02.102Z,79.30
2019-01-29T08:11:35.587Z,80.00
2019-01-29T08:14:19.765Z,79.30
2019-01-29T08:16:53.249Z,74.70
2019-01-29T08:19:25.763Z,75.60
2019-01-29T08:21:58.775Z,78.20
2019-01-29T08:24:37.339Z,77.70
2019-01-29T08:27:07.691Z,78.20
2019-01-29T08:29:37.860Z,79.50
2019-01-29T08:32:10.271Z,78.90
2019-01-29T08:34:44.436Z,76.60
2019-01-29T08:37:15.687Z,78.30
2019-01-29T08:39:49.752Z,79.90
2019-01-29T08:42:24.418Z,75.90
2019-01-29T08:45:01.579Z,76.60
2019-01-29T08:47:33.740Z,77.50
2019-01-29T08:50:04.547Z,76.80
2019-01-29T08:52:35.884Z,77.80
2019-01-29T08:57:44.932Z,72.80
2019-01-29T09:00:17.527Z,70.50
2019-01-29T09:02:48.193Z,65.70
2019-01-29T09:07:57.728Z,64.00
2019-01-29T09:10:28.017Z,64.30
2019-01-29T09:13:03.569Z,67.30
2019-01-29T09:15:36.879Z,66.60
2019-01-29T09:18:08.098Z,66.20
2019-01-29T09:20:39.302Z,68.60
2019-01-29T09:23:12.533Z,67.30
2019-01-29T09:25:43.251Z,64.80
2019-01-29T09:28:18.553Z,61.50
2019-01-29T09:30:46.158Z,64.20
2019-01-29T09:33:23.157Z,64.10
2019-01-29T09:35:56.111Z,61.10
2019-01-29T09:38:26.511Z,61.80
2019-01-29T09:40:57.609Z,60.50
2019-01-29T09:43:29.799Z,57.40
2019-01-29T09:46:04.519Z,57.50
2019-01-29T09:48:37.118Z,60.70
2019-01-29T09:51:09.398Z,56.30
2019-01-29T09:53:42.601Z,58.40
2019-01-29T09:56:15.364Z,58.10
2019-01-29T09:58:50.984Z,60.80
2019-01-29T10:01:22.152Z,57.30
2019-01-29T10:03:53.841Z,57.90
2019-01-29T10:06:26.383Z,55.30
2019-01-29T10:08:59.508Z,56.00
2019-01-29T10:11:33.502Z,53.40
2019-01-29T10:14:07.391Z,54.70
2019-01-29T10:16:40.711Z,54.30
2019-01-29T10:19:10.978Z,56.50
2019-01-29T10:21:45.764Z,53.90
2019-01-29T10:24:19.662Z,57.00
2019-01-29T10:26:51.959Z,54.30
2019-01-29T10:29:27.559Z,58.60
2019-01-29T10:32:01.048Z,55.40
2019-01-29T10:34:31.466Z,55.20
2019-01-29T10:37:04.736Z,51.60
2019-01-29T10:39:35.393Z,53.40
2019-01-29T10:42:06.021Z,51.10
2019-01-29T10:44:37.808Z,52.10
2019-01-29T10:47:08.785Z,51.80
2019-01-29T10:49:43.560Z,50.20
2019-01-29T10:52:16.544Z,48.10
2019-01-29T10:54:47.098Z,51.50
2019-01-29T10:57:17.317Z,51.80
2019-01-29T10:59:48.612Z,48.00
2019-01-29T11:02:20.714Z,49.50
2019-01-29T11:04:52.126Z,48.40
2019-01-29T11:07:23.507Z,48.50
2019-01-29T11:09:56.340Z,50.40
2019-01-29T11:12:28.224Z,49.90
2019-01-29T11:14:59.428Z,48.60
2019-01-29T11:17:31.903Z,47.00
2019-01-29T11:20:03.527Z,46.40
2019-01-29T11:22:35.488Z,49.80
2019-01-29T11:25:09.023Z,47.00
2019-01-29T11:27:39.639Z,45.60
2019-01-29T11:30:15.960Z,44.30
2019-01-29T11:32:46.468Z,42.30
2019-01-29T11:35:16.937Z,44.40
2019-01-29T11:37:47.063Z,45.50
2019-01-29T11:40:20.134Z,44.10
2019-01-29T11:42:50.337Z,44.10
2019-01-29T11:45:26.320Z,45.70
2019-01-29T11:48:01.396Z,43.30
2019-01-29T11:50:31.992Z,43.50
2019-01-29T11:53:02.233Z,44.50
2019-01-29T11:55:32.379Z,43.40
2019-01-29T11:58:04.250Z,43.70
2019-01-29T12:00:42.839Z,44.70
2019-01-29T12:03:13.163Z,44.70
2019-01-29T12:05:43.349Z,44.30
2019-01-29T12:08:13.520Z,46.70
2019-01-29T12:10:45.526Z,43.20
2019-01-29T12:13:15.706Z,40.20
2019-01-29T12:15:46.964Z,44.80
2019-01-29T12:18:19.353Z,41.70
2019-01-29T12:20:49.886Z,41.00
2019-01-29T12:23:20.082Z,36.00
2019-01-29T12:25:53.733Z,33.30
2019-01-29T12:28:26.265Z,35.20
2019-01-29T12:30:58.008Z,34.40
2019-01-29T12:33:29.356Z,34.40
2019-01-29T12:36:03.508Z,34.20
2019-01-29T12:38:34.858Z,34.40
2019-01-29T12:41:05.877Z,33.90
2019-01-29T12:43:36.007Z,37.90
2019-01-29T12:46:06.724Z,35.40
2019-01-29T12:48:38.434Z,32.30
2019-01-29T12:51:15.308Z,31.50
2019-01-29T12:53:46.002Z,31.70
2019-01-29T12:56:21.629Z,33.40
2019-01-29T12:58:49.715Z,33.30
2019-01-29T13:01:23.210Z,29.70
2019-01-29T13:03:56.048Z,32.30
2019-01-29T13:06:28.298Z,33.40
2019-01-29T13:08:58.824Z,33.10
2019-01-29T13:11:30.912Z,26.40
2019-01-29T13:14:03.080Z,29.70
2019-01-29T13:16:38.097Z,28.40
2019-01-29T13:19:09.591Z,29.10
2019-01-29T13:21:40.332Z,28.60
2019-01-29T13:24:10.849Z,29.50
2019-01-29T13:26:42.925Z,28.30
2019-01-29T13:29:14.524Z,26.10
2019-01-29T13:31:48.395Z,27.80
2019-01-29T13:34:20.142Z,28.60
2019-01-29T13:36:50.329Z,27.20
2019-01-29T13:39:22.656Z,29.20
2019-01-29T13:41:54.285Z,27.70
2019-01-29T13:44:26.357Z,26.70
2019-01-29T13:47:00.285Z,25.80
2019-01-29T13:49:32.179Z,27.20
2019-01-29T13:52:02.685Z,28.00
2019-01-29T13:54:33.071Z,27.20
2019-01-29T13:57:05.080Z,28.30
2019-01-29T13:59:35.910Z,26.80
2019-01-29T14:02:10.296Z,28.70
2019-01-29T14:04:41.519Z,27.40
2019-01-29T14:07:13.070Z,28.30
2019-01-29T14:09:45.526Z,26.80
2019-01-29T14:12:15.684Z,28.60
2019-01-29T14:14:46.085Z,29.00
2019-01-29T14:17:19.685Z,27.10
2019-01-29T14:19:50.195Z,29.80
2019-01-29T14:22:26.486Z,28.20
2019-01-29T14:24:56.804Z,28.10
2019-01-29T14:27:30.556Z,28.80
2019-01-29T14:30:01.024Z,28.70
2019-01-29T14:32:32.237Z,28.30
2019-01-29T14:35:02.618Z,28.00
2019-01-29T14:37:53.276Z,27.30
2019-01-29T14:40:23.837Z,26.60
2019-01-29T14:42:53.929Z,24.50
2019-01-29T14:45:26.199Z,25.70
2019-01-29T14:47:56.486Z,27.60
2019-01-29T14:50:28.399Z,30.20
2019-01-29T14:52:58.756Z,27.10
2019-01-29T14:55:29.160Z,28.10
2019-01-29T14:57:59.421Z,26.80
2019-01-29T15:00:31.418Z,29.40
2019-01-29T15:03:02.087Z,29.80
2019-01-29T15:05:33.641Z,31.60
2019-01-29T15:08:04.040Z,29.00
2019-01-29T15:10:35.642Z,29.20
2019-01-29T15:13:09.904Z,27.90
2019-01-29T15:15:46.869Z,27.30
2019-01-29T15:18:39.025Z,29.90
2019-01-29T15:21:10.293Z,28.80
2019-01-29T15:23:40.469Z,30.50
2019-01-29T15:26:10.739Z,30.60
2019-01-29T15:28:43.071Z,32.70
2019-01-29T15:31:13.478Z,32.10
2019-01-29T15:33:43.584Z,33.20
2019-01-29T15:36:14.084Z,33.20
2019-01-29T15:38:46.316Z,31.80
2019-01-29T15:41:19.450Z,34.10
2019-01-29T15:44:47.549Z,34.30
2019-01-29T15:48:37.627Z,36.70
2019-01-29T15:51:00.226Z,36.90
2019-01-29T15:54:09.162Z,37.00
2019-01-29T15:56:41.176Z,38.40
2019-01-29T15:59:12.677Z,41.80
2019-01-29T16:01:42.823Z,43.60
2019-01-29T16:04:19.288Z,46.90
2019-01-29T16:06:49.602Z,48.20
2019-01-29T16:09:19.724Z,49.40
2019-01-29T16:11:50.166Z,51.10
2019-01-29T16:14:22.335Z,53.70
2019-01-29T16:16:52.486Z,51.80
2019-01-29T16:19:22.619Z,54.00
2019-01-29T16:21:52.786Z,55.30
2019-01-29T16:24:23.166Z,57.70
2019-01-29T16:27:06.577Z,56.80
2019-01-29T16:29:32.628Z,58.20
2019-01-29T16:32:02.805Z,62.50
2019-01-29T16:34:33.417Z,62.70
2019-01-29T16:37:04.695Z,64.50
2019-01-29T16:39:34.983Z,65.70
2019-01-29T16:42:07.338Z,66.10
2019-01-29T16:44:42.087Z,65.70
2019-01-29T16:47:12.472Z,67.10
2019-01-29T16:49:43.829Z,68.20
2019-01-29T16:52:14.019Z,69.70
2019-01-29T16:54:44.176Z,71.90
2019-01-29T16:57:17.940Z,74.30
2019-01-29T16:59:48.111Z,74.90
2019-01-29T17:02:22.394Z,75.90
2019-01-29T17:04:54.100Z,77.80
2019-01-29T17:07:32.904Z,76.70
2019-01-29T17:10:03.020Z,77.10
2019-01-29T17:12:33.206Z,78.90
2019-01-29T17:17:44.308Z,73.90
2019-01-29T17:24:49.502Z,73.00
2019-01-29T17:27:24.879Z,80.50
2019-01-29T17:30:30.195Z,80.50
2019-01-29T17:34:01.034Z,80.10
2019-01-29T17:36:29.067Z,83.10
2019-01-29T17:39:14.625Z,84.10
2019-01-29T17:42:22.073Z,83.50
2019-01-29T17:45:27.677Z,84.10
2019-01-29T17:48:10.297Z,85.80
2019-01-29T17:51:02.962Z,86.10
2019-01-29T17:56:37.988Z,87.20
2019-01-29T17:59:22.191Z,89.00
2019-01-29T18:02:37.754Z,87.70
2019-01-29T18:05:21.197Z,89.70
2019-01-29T18:07:50.189Z,89.20
2019-01-29T18:10:20.849Z,87.00
2019-01-29T18:12:51.399Z,87.20
2019-01-29T18:15:23.597Z,85.70
2019-01-29T18:17:56.949Z,86.30
2019-01-29T18:20:27.969Z,88.00
2019-01-29T18:22:59.282Z,87.70
2019-01-29T18:25:29.609Z,87.80
2019-01-29T18:28:02.329Z,86.90
2019-01-29T18:30:34.662Z,85.70
2019-01-29T18:33:05.895Z,86.70
2019-01-29T18:35:38.297Z,87.50
2019-01-29T18:38:10.580Z,87.60
2019-01-29T18:40:51.434Z,88.00
2019-01-29T18:43:25.433Z,87.00
2019-01-29T18:46:00.671Z,89.10
2019-01-29T18:48:31.951Z,87.70
2019-01-29T18:51:09.927Z,88.00
2019-01-29T18:53:40.095Z,88.30
2019-01-29T18:56:12.729Z,88.50
2019-01-29T18:58:44.529Z,89.70
2019-01-29T19:01:20.013Z,85.50
2019-01-29T19:03:52.858Z,87.00
2019-01-29T19:06:23.046Z,87.90
2019-01-29T19:08:53.266Z,88.50
2019-01-29T19:11:23.412Z,89.80
2019-01-29T19:13:53.724Z,90.40
2019-01-29T19:16:27.647Z,88.00
2019-01-29T19:18:59.425Z,86.00
2019-01-29T19:21:30.593Z,87.40
2019-01-29T19:24:00.720Z,88.90
2019-01-29T19:26:32.760Z,89.50
2019-01-29T19:29:06.522Z,89.40
2019-01-29T19:31:36.470Z,89.20
2019-01-29T19:34:06.654Z,89.40
2019-01-29T19:36:37.376Z,89.70
2019-01-29T19:39:09.581Z,89.90
2019-01-29T19:41:39.812Z,91.00
2019-01-29T19:44:10.012Z,83.80
2019-01-29T19:46:42.370Z,85.40
2019-01-29T19:49:13.995Z,86.90
2019-01-29T19:51:49.066Z,87.30
2019-01-29T19:54:19.515Z,88.00
2019-01-29T19:56:54.750Z,82.30
2019-01-29T19:59:26.361Z,85.60
2019-01-29T20:01:59.453Z,87.60
2019-01-29T20:04:31.564Z,87.80
2019-01-29T20:07:07.780Z,87.90
2019-01-29T20:09:41.159Z,89.10
2019-01-29T20:12:16.925Z,89.90
2019-01-29T20:14:53.924Z,86.40
2019-01-29T20:17:39.776Z,87.00
2019-01-29T20:20:18.203Z,89.00
2019-01-29T20:22:52.835Z,89.70
2019-01-29T20:25:25.137Z,88.60
2019-01-29T20:28:00.053Z,85.40
2019-01-29T20:30:39.612Z,85.20
2019-01-29T20:33:14.392Z,85.70
2019-01-29T20:35:50.959Z,85.30
2019-01-29T20:38:35.131Z,86.00
2019-01-29T20:41:08.298Z,85.90
2019-01-29T20:43:44.963Z,87.50
2019-01-29T20:46:19.615Z,87.60
2019-01-29T20:48:52.037Z,86.80
2019-01-29T20:51:26.428Z,85.50
2019-01-29T20:54:00.212Z,86.10
2019-01-29T20:56:34.299Z,86.10
2019-01-29T20:59:12.567Z,86.60
2019-01-29T21:01:48.938Z,83.90
2019-01-29T21:04:21.832Z,86.90
2019-01-29T21:06:52.069Z,82.40
2019-01-29T21:09:25.670Z,82.90
2019-01-29T21:12:03.827Z,86.80
2019-01-29T21:14:37.193Z,86.50
2019-01-29T21:17:09.275Z,86.40
2019-01-29T21:19:42.115Z,86.00
2019-01-29T21:22:14.619Z,88.00
2019-01-29T21:24:50.612Z,86.80
2019-01-29T21:27:21.866Z,86.70
2019-01-29T21:29:57.385Z,84.60
2019-01-29T21:32:32.282Z,84.10
2019-01-29T21:35:02.802Z,82.90
2019-01-29T21:37:38.819Z,85.10
2019-01-29T21:40:31.311Z,86.30
2019-01-29T21:43:11.266Z,84.10
2019-01-29T21:45:51.576Z,84.80
2019-01-29T21:48:26.482Z,81.50
2019-01-29T21:51:01.848Z,82.00
2019-01-29T21:53:36.931Z,85.60
2019-01-29T21:56:26.975Z,82.80
2019-01-29T21:59:13.235Z,85.90
2019-01-29T22:01:43.543Z,86.50
2019-01-29T22:04:17.551Z,84.50
2019-01-29T22:06:51.728Z,81.40
2019-01-29T22:09:29.613Z,84.00
2019-01-29T22:12:26.093Z,85.20
2019-01-29T22:15:06.321Z,85.50
2019-01-29T22:17:54.472Z,86.40
2019-01-29T22:20:31.682Z,82.30
2019-01-29T22:23:07.996Z,82.10
2019-01-29T22:25:43.994Z,82.60
2019-01-29T22:28:20.485Z,80.30
2019-01-29T22:31:05.844Z,83.60
2019-01-29T22:33:51.403Z,84.70
2019-01-29T22:36:29.529Z,86.20
2019-01-29T22:39:01.457Z,83.90
2019-01-29T22:42:02.377Z,83.90
2019-01-29T22:44:50.163Z,84.90
2019-01-29T22:47:26.647Z,83.90
2019-01-29T22:50:08.272Z,81.70
2019-01-29T22:52:48.883Z,82.10
2019-01-29T22:55:22.975Z,81.80
2019-01-29T22:58:10.276Z,78.80
2019-01-29T23:00:59.843Z,78.40
2019-01-29T23:03:39.002Z,79.10
2019-01-29T23:06:51.090Z,77.70
2019-01-29T23:09:35.865Z,76.30
2019-01-29T23:12:11.782Z,81.40
2019-01-29T23:14:47.758Z,81.90
2019-01-29T23:17:20.238Z,84.80
2019-01-29T23:19:52.109Z,86.80
2019-01-29T23:22:26.301Z,85.70
2019-01-29T23:25:03.524Z,83.00
2019-01-29T23:27:59.146Z,84.20
2019-01-29T23:30:35.632Z,82.20
2019-01-29T23:33:14.667Z,82.80
2019-01-29T23:35:47.537Z,81.30
2019-01-29T23:38:31.425Z,81.30
2019-01-29T23:41:08.879Z,79.00
2019-01-29T23:43:43.400Z,82.40
2019-01-29T23:46:16.729Z,78.20
2019-01-29T23:48:49.752Z,77.90
2019-01-29T23:51:26.616Z,79.20
2019-01-29T23:53:59.904Z,79.20
2019-01-29T23:56:32.589Z,78.40
2019-01-29T23:59:03.871Z,78.90
